Ruthton, Minnesota
Current Conditions -  °F | °C
As of 4:54 PM on Wednesday 22 Oct 2014 (Local Time) from KPQN Reporting Station
Moderate Rain Moderate Rain  
Wind Chill: 66°   Ceiling: 4800
Heat Index: 66°   Visibility: 7mi
Dew Point: 54°   Wind: 14mph
Humidity: 64%   Direction: 250°WSW
Pressure: 29.96"   Gusts: NA
Location:  44.18°N, 96.1°W
Report Text: KPQN 222154Z AUTO 25012KT 7SM RA OVC048 19/12 A2996 RMK AO2
Loading
Personal Weather Stations






























Interactive Weather Map
Tropical Storm Tracking
New forecast layout! Learn more

10-Day Weather Forecast

Advertisements
Track Severe Weather on mobile